createdAt,value
2023-02-06T00:02:02.213Z,37.58
2023-02-06T00:07:04.078Z,37.52
2023-02-06T00:12:06.235Z,37.39
2023-02-06T00:17:08.227Z,37.39
2023-02-06T00:22:10.858Z,37.42
2023-02-06T00:27:12.881Z,37.24
2023-02-06T00:32:14.892Z,37.37
2023-02-06T00:37:17.720Z,37.11
2023-02-06T00:42:19.590Z,37.10
2023-02-06T00:47:21.571Z,36.78
2023-02-06T00:52:23.511Z,36.66
2023-02-06T00:57:25.455Z,37.04
2023-02-06T01:02:27.505Z,36.70
2023-02-06T01:07:29.743Z,36.78
2023-02-06T01:12:31.676Z,36.69
2023-02-06T01:17:34.496Z,36.86
2023-02-06T01:22:37.035Z,36.88
2023-02-06T01:27:39.618Z,36.76
2023-02-06T01:32:42.343Z,36.63
2023-02-06T01:37:44.565Z,36.55
2023-02-06T01:42:46.629Z,36.83
2023-02-06T01:47:50.183Z,36.24
2023-02-06T01:52:52.375Z,36.29
2023-02-06T01:57:54.478Z,36.47
2023-02-06T02:02:56.585Z,36.30
2023-02-06T02:08:04.803Z,36.16
2023-02-06T02:13:06.600Z,36.36
2023-02-06T02:18:27.130Z,36.06
2023-02-06T02:24:07.083Z,36.35
2023-02-06T02:29:30.609Z,36.27
2023-02-06T02:34:50.876Z,36.10
2023-02-06T02:40:16.396Z,36.21
2023-02-06T02:45:29.195Z,36.06
2023-02-06T02:50:32.530Z,36.27
2023-02-06T02:55:35.293Z,36.32
2023-02-06T03:00:44.311Z,36.29
2023-02-06T03:06:00.874Z,36.25
2023-02-06T03:11:18.469Z,36.34
2023-02-06T03:16:25.792Z,36.77
2023-02-06T03:21:29.690Z,36.70
2023-02-06T03:26:33.295Z,36.95
2023-02-06T03:31:55.822Z,36.94
2023-02-06T03:36:57.749Z,37.14
2023-02-06T03:42:01.667Z,37.30
2023-02-06T03:47:06.375Z,37.08
2023-02-06T03:52:13.770Z,37.32
2023-02-06T03:57:19.665Z,37.50
2023-02-06T04:02:23.609Z,37.30
2023-02-06T04:07:28.150Z,37.54
2023-02-06T04:12:29.980Z,37.48
2023-02-06T04:17:49.646Z,37.18
2023-02-06T04:22:54.014Z,37.59
2023-02-06T04:27:56.122Z,37.27
2023-02-06T04:32:58.385Z,37.48
2023-02-06T04:38:00.502Z,37.33
2023-02-06T04:43:02.406Z,37.54
2023-02-06T04:48:04.582Z,37.82
2023-02-06T04:53:06.473Z,37.62
2023-02-06T04:58:08.685Z,37.83
2023-02-06T05:03:10.728Z,37.58
2023-02-06T05:08:12.520Z,38.03
2023-02-06T05:13:14.601Z,37.99
2023-02-06T05:18:16.816Z,37.82
2023-02-06T05:23:18.749Z,38.08
2023-02-06T05:28:20.805Z,37.87
2023-02-06T05:33:23.306Z,38.15
2023-02-06T05:38:25.249Z,38.04
2023-02-06T05:43:27.707Z,37.74
2023-02-06T05:48:30.899Z,37.92
2023-02-06T05:53:33.017Z,37.89
2023-02-06T05:58:35.201Z,37.77
2023-02-06T06:03:38.778Z,38.15
2023-02-06T06:08:40.946Z,38.11
2023-02-06T06:13:42.900Z,37.83
2023-02-06T06:18:44.685Z,38.02
2023-02-06T06:23:46.572Z,37.69
2023-02-06T06:28:48.794Z,37.88
2023-02-06T06:33:50.808Z,37.96
2023-02-06T06:38:53.061Z,37.77
2023-02-06T06:43:56.911Z,37.94
2023-02-06T06:48:58.984Z,37.64
2023-02-06T06:54:00.786Z,37.88
2023-02-06T06:59:02.889Z,37.92
2023-02-06T07:04:05.213Z,38.04
2023-02-06T07:09:07.125Z,37.71
2023-02-06T07:14:09.267Z,37.77
2023-02-06T07:19:11.351Z,37.86
2023-02-06T07:24:13.149Z,37.69
2023-02-06T07:29:15.005Z,37.74
2023-02-06T07:34:17.162Z,37.81
2023-02-06T07:39:19.137Z,38.36
2023-02-06T07:44:21.068Z,38.29
2023-02-06T07:49:23.182Z,38.53
2023-02-06T07:54:25.033Z,40.43
2023-02-06T07:59:26.909Z,41.06
2023-02-06T08:04:35.414Z,41.33
2023-02-06T08:09:37.453Z,41.90
2023-02-06T08:14:39.199Z,42.57
2023-02-06T08:19:41.373Z,42.74
2023-02-06T08:24:43.247Z,42.46
2023-02-06T08:29:45.535Z,43.15
2023-02-06T08:34:47.416Z,42.54
2023-02-06T08:39:49.198Z,42.44
2023-02-06T08:44:52.711Z,42.39
2023-02-06T08:49:54.981Z,42.58
2023-02-06T08:54:56.819Z,43.15
2023-02-06T08:59:58.904Z,43.16
2023-02-06T09:05:00.761Z,43.42
2023-02-06T09:10:02.680Z,43.22
2023-02-06T09:15:05.573Z,42.58
2023-02-06T09:20:08.061Z,42.37
2023-02-06T09:25:10.585Z,42.83
2023-02-06T09:30:14.961Z,44.45
2023-02-06T09:35:17.077Z,44.13
2023-02-06T09:40:25.088Z,43.13
2023-02-06T09:45:30.280Z,43.01
2023-02-06T09:50:48.329Z,42.77
2023-02-06T09:55:58.736Z,42.59
2023-02-06T10:01:27.449Z,42.50
2023-02-06T10:06:45.433Z,42.14
2023-02-06T10:11:58.724Z,42.23
2023-02-06T10:17:04.367Z,42.19
2023-02-06T10:22:21.440Z,42.19
2023-02-06T10:27:23.262Z,42.10
2023-02-06T10:33:03.321Z,43.33
2023-02-06T10:38:39.058Z,43.12
2023-02-06T10:44:04.612Z,42.54
2023-02-06T10:49:22.147Z,42.26
2023-02-06T10:54:31.581Z,42.12
2023-02-06T10:59:38.405Z,41.99
2023-02-06T11:04:45.349Z,42.38
2023-02-06T11:09:47.286Z,42.02
2023-02-06T11:14:51.024Z,41.93
2023-02-06T11:19:53.841Z,41.64
2023-02-06T11:25:08.221Z,41.30
2023-02-06T11:30:33.754Z,41.07
2023-02-06T11:35:47.652Z,41.24
2023-02-06T11:41:02.432Z,41.17
2023-02-06T11:46:19.446Z,40.94
2023-02-06T11:51:22.755Z,41.11
2023-02-06T11:56:25.362Z,41.06
2023-02-06T12:01:27.337Z,40.81
2023-02-06T12:06:38.712Z,40.92
2023-02-06T12:11:53.908Z,41.00
2023-02-06T12:16:56.771Z,40.87
2023-02-06T12:22:04.523Z,40.66
2023-02-06T12:27:17.170Z,40.97
2023-02-06T12:32:29.735Z,41.03
2023-02-06T12:37:43.003Z,40.79
2023-02-06T12:42:54.928Z,40.71
2023-02-06T12:48:05.075Z,40.61
2023-02-06T12:53:26.559Z,40.47
2023-02-06T12:58:37.065Z,40.59
2023-02-06T13:04:04.976Z,40.43
2023-02-06T13:09:08.330Z,40.45
2023-02-06T13:14:20.803Z,40.18
2023-02-06T13:19:51.866Z,40.87
2023-02-06T13:24:57.602Z,41.69
2023-02-06T13:30:17.878Z,41.31
2023-02-06T13:35:24.377Z,41.39
2023-02-06T13:40:26.943Z,42.31
2023-02-06T13:45:52.965Z,41.91
2023-02-06T13:51:17.335Z,42.08
2023-02-06T13:56:38.680Z,43.93
2023-02-06T14:01:40.852Z,45.16
2023-02-06T14:06:45.864Z,45.32
2023-02-06T14:12:18.995Z,45.82
2023-02-06T14:17:47.618Z,44.86
2023-02-06T14:23:03.281Z,44.15
2023-02-06T14:28:24.098Z,43.67
2023-02-06T14:33:44.849Z,42.48
2023-02-06T14:39:03.761Z,42.45
2023-02-06T14:44:19.504Z,42.51
2023-02-06T14:49:30.121Z,43.47
2023-02-06T14:54:39.112Z,43.23
2023-02-06T14:59:54.246Z,45.94
2023-02-06T15:04:57.591Z,44.97
2023-02-06T15:10:10.303Z,44.32
2023-02-06T15:15:26.664Z,43.31
2023-02-06T15:20:43.515Z,42.98
2023-02-06T15:25:54.245Z,43.53
2023-02-06T15:30:59.223Z,43.65
2023-02-06T15:36:03.883Z,44.45
2023-02-06T15:41:08.737Z,44.33
2023-02-06T15:46:10.962Z,44.13
2023-02-06T15:51:30.533Z,45.05
2023-02-06T15:56:35.562Z,44.13
2023-02-06T16:01:41.711Z,45.33
2023-02-06T16:06:44.602Z,44.06
2023-02-06T16:11:52.113Z,43.40
2023-02-06T16:17:00.040Z,42.77
2023-02-06T16:22:14.641Z,44.42
2023-02-06T16:27:21.040Z,43.66
2023-02-06T16:32:31.657Z,42.64
2023-02-06T16:37:33.506Z,43.98
2023-02-06T16:42:38.105Z,44.00
2023-02-06T16:47:40.160Z,44.50
2023-02-06T16:52:47.702Z,44.54
2023-02-06T16:57:53.088Z,44.39
2023-02-06T17:02:55.458Z,44.35
2023-02-06T17:07:57.376Z,44.37
2023-02-06T17:12:59.404Z,44.45
2023-02-06T17:18:01.420Z,44.11
2023-02-06T17:23:04.128Z,44.00
2023-02-06T17:28:08.006Z,44.11
2023-02-06T17:33:09.884Z,44.44
2023-02-06T17:38:12.528Z,44.29
2023-02-06T17:43:15.539Z,43.80
2023-02-06T17:48:17.500Z,43.85
2023-02-06T17:53:19.493Z,43.71
2023-02-06T17:58:21.578Z,43.28
2023-02-06T18:03:23.486Z,44.21
2023-02-06T18:08:25.520Z,44.30
2023-02-06T18:13:28.947Z,44.38
2023-02-06T18:18:31.534Z,44.22
2023-02-06T18:23:33.540Z,42.75
2023-02-06T18:28:37.453Z,41.87
2023-02-06T18:33:39.259Z,41.61
2023-02-06T18:38:41.244Z,41.90
2023-02-06T18:43:43.398Z,41.63
2023-02-06T18:48:45.248Z,41.89
2023-02-06T18:53:47.373Z,41.60
2023-02-06T18:58:49.522Z,41.60
2023-02-06T19:03:52.958Z,41.53
2023-02-06T19:08:54.882Z,41.54
2023-02-06T19:13:57.064Z,41.54
2023-02-06T19:18:59.344Z,41.52
2023-02-06T19:24:01.366Z,41.50
2023-02-06T19:29:03.380Z,41.73
2023-02-06T19:34:05.381Z,41.61
2023-02-06T19:39:09.895Z,41.49
2023-02-06T19:44:13.813Z,41.75
2023-02-06T19:49:15.828Z,41.40
2023-02-06T19:54:18.289Z,41.63
2023-02-06T19:59:22.898Z,41.27
2023-02-06T20:04:28.224Z,41.00
2023-02-06T20:09:30.991Z,40.98
2023-02-06T20:14:32.876Z,41.12
2023-02-06T20:19:34.750Z,41.26
2023-02-06T20:24:36.735Z,41.19
2023-02-06T20:29:40.339Z,41.21
2023-02-06T20:34:42.681Z,41.37
2023-02-06T20:39:44.685Z,41.35
2023-02-06T20:44:46.977Z,41.52
2023-02-06T20:49:48.921Z,41.34
2023-02-06T20:54:50.865Z,41.26
2023-02-06T20:59:52.811Z,41.12
2023-02-06T21:04:55.682Z,41.25
2023-02-06T21:09:57.785Z,41.13
2023-02-06T21:14:59.670Z,41.00
2023-02-06T21:20:01.565Z,41.33
2023-02-06T21:25:04.422Z,40.91
2023-02-06T21:30:06.953Z,41.22
2023-02-06T21:35:10.677Z,41.09
2023-02-06T21:40:12.525Z,41.13
2023-02-06T21:45:14.599Z,41.30
2023-02-06T21:50:16.559Z,41.43
2023-02-06T21:55:18.551Z,41.33
2023-02-06T22:00:20.579Z,41.61
2023-02-06T22:05:22.962Z,41.66
2023-02-06T22:10:25.184Z,41.59
2023-02-06T22:15:27.155Z,41.68
2023-02-06T22:20:29.134Z,41.50
2023-02-06T22:25:31.289Z,41.57
2023-02-06T22:30:33.247Z,41.05
2023-02-06T22:35:39.902Z,41.64
2023-02-06T22:40:41.791Z,41.86
2023-02-06T22:45:43.747Z,41.55
2023-02-06T22:50:45.617Z,41.80
2023-02-06T22:56:06.053Z,41.87
2023-02-06T23:01:07.965Z,41.48
2023-02-06T23:06:12.046Z,41.69
2023-02-06T23:11:14.748Z,41.72
2023-02-06T23:16:17.035Z,41.75
2023-02-06T23:21:21.359Z,41.50
2023-02-06T23:26:23.350Z,41.71
2023-02-06T23:31:27.196Z,41.63
2023-02-06T23:36:29.886Z,41.62
2023-02-06T23:41:32.818Z,41.57
2023-02-06T23:46:36.573Z,41.74
2023-02-06T23:51:38.882Z,41.63
2023-02-06T23:56:41.266Z,41.60
